createdAt,value
2023-05-12T00:00:53.461Z,80.00
2023-05-12T00:01:53.535Z,79.51
2023-05-12T00:02:53.511Z,80.10
2023-05-12T00:03:53.568Z,80.52
2023-05-12T00:04:53.475Z,80.34
2023-05-12T00:05:53.448Z,80.54
2023-05-12T00:06:53.377Z,80.18
2023-05-12T00:07:53.466Z,79.86
2023-05-12T00:08:53.362Z,79.86
2023-05-12T00:09:53.399Z,79.95
2023-05-12T00:10:53.311Z,79.59
2023-05-12T00:11:53.388Z,79.49
2023-05-12T00:12:53.294Z,80.32
2023-05-12T00:13:53.351Z,80.25
2023-05-12T00:14:53.469Z,80.21
2023-05-12T00:15:53.368Z,80.34
2023-05-12T00:16:53.345Z,79.76
2023-05-12T00:17:53.477Z,80.00
2023-05-12T00:18:53.255Z,80.48
2023-05-12T00:19:53.352Z,80.46
2023-05-12T00:20:53.211Z,80.81
2023-05-12T00:21:53.272Z,79.84
2023-05-12T00:22:53.149Z,80.08
2023-05-12T00:23:53.179Z,80.26
2023-05-12T00:24:53.128Z,80.44
2023-05-12T00:25:53.189Z,80.06
2023-05-12T00:26:53.109Z,80.21
2023-05-12T00:27:53.209Z,80.91
2023-05-12T00:28:53.073Z,80.78
2023-05-12T00:29:53.112Z,80.29
2023-05-12T00:30:53.051Z,80.39
2023-05-12T00:31:53.228Z,80.72
2023-05-12T00:32:53.098Z,79.86
2023-05-12T00:33:55.141Z,79.89
2023-05-12T00:34:53.042Z,80.16
2023-05-12T00:35:53.051Z,79.91
2023-05-12T00:36:52.991Z,79.82
2023-05-12T00:37:53.030Z,80.14
2023-05-12T00:38:52.970Z,80.59
2023-05-12T00:39:52.982Z,80.39
2023-05-12T00:40:53.478Z,80.20
2023-05-12T00:41:53.684Z,80.44
2023-05-12T00:42:52.912Z,79.71
2023-05-12T00:43:52.916Z,79.71
2023-05-12T00:44:52.886Z,79.99
2023-05-12T00:45:52.950Z,80.16
2023-05-12T00:46:52.878Z,79.96
2023-05-12T00:47:52.880Z,80.01
2023-05-12T00:48:52.897Z,79.90
2023-05-12T00:49:52.851Z,80.54
2023-05-12T00:50:52.808Z,80.40
2023-05-12T00:51:52.868Z,80.48
2023-05-12T00:52:52.751Z,80.42
2023-05-12T00:53:52.803Z,80.48
2023-05-12T00:54:52.835Z,80.36
2023-05-12T00:55:52.803Z,80.38
2023-05-12T00:56:52.717Z,79.82
2023-05-12T00:57:52.728Z,80.17
2023-05-12T00:58:52.696Z,79.74
2023-05-12T00:59:52.733Z,80.04
2023-05-12T01:00:52.674Z,80.13
2023-05-12T01:01:54.735Z,80.46
2023-05-12T01:02:52.771Z,81.02
2023-05-12T01:03:52.660Z,80.74
2023-05-12T01:04:52.612Z,80.79
2023-05-12T01:05:52.826Z,80.79
2023-05-12T01:06:52.561Z,80.32
2023-05-12T01:07:52.588Z,80.71
2023-05-12T01:08:52.558Z,80.47
2023-05-12T01:09:52.675Z,80.92
2023-05-12T01:10:52.514Z,81.38
2023-05-12T01:11:52.631Z,81.33
2023-05-12T01:12:52.488Z,80.88
2023-05-12T01:13:52.516Z,80.83
2023-05-12T01:14:52.475Z,81.13
2023-05-12T01:15:52.529Z,81.15
2023-05-12T01:16:52.457Z,80.70
2023-05-12T01:17:52.622Z,81.24
2023-05-12T01:18:52.475Z,81.10
2023-05-12T01:19:52.474Z,80.88
2023-05-12T01:20:52.436Z,80.96
2023-05-12T01:21:52.475Z,80.95
2023-05-12T01:22:52.349Z,81.33
2023-05-12T01:23:52.396Z,81.55
2023-05-12T01:24:52.319Z,81.57
2023-05-12T01:25:52.417Z,81.50
2023-05-12T01:26:52.413Z,81.68
2023-05-12T01:27:52.393Z,81.61
2023-05-12T01:28:52.273Z,81.58
2023-05-12T01:29:52.430Z,81.28
2023-05-12T01:30:52.265Z,81.43
2023-05-12T01:31:52.343Z,81.55
2023-05-12T01:32:52.637Z,81.79
2023-05-12T01:33:52.249Z,82.16
2023-05-12T01:34:52.224Z,81.48
2023-05-12T01:35:52.411Z,81.70
2023-05-12T01:36:52.157Z,82.12
2023-05-12T01:37:52.180Z,82.18
2023-05-12T01:38:52.169Z,82.28
2023-05-12T01:39:52.208Z,81.97
2023-05-12T01:40:52.103Z,82.16
2023-05-12T01:41:52.255Z,82.54
2023-05-12T01:42:52.188Z,82.63
2023-05-12T01:43:52.129Z,82.21
2023-05-12T01:44:52.222Z,82.21
2023-05-12T01:45:52.131Z,82.32
2023-05-12T01:46:52.083Z,82.29
2023-05-12T01:47:52.053Z,81.93
2023-05-12T01:48:51.991Z,81.69
2023-05-12T01:49:52.083Z,82.68
2023-05-12T01:50:51.974Z,82.45
2023-05-12T01:51:51.974Z,82.23
2023-05-12T01:52:51.941Z,82.61
2023-05-12T01:53:51.997Z,82.33
2023-05-12T01:54:51.927Z,82.26
2023-05-12T01:55:52.022Z,82.64
2023-05-12T01:56:51.909Z,82.22
2023-05-12T01:57:51.912Z,82.39
2023-05-12T01:58:52.020Z,82.72
2023-05-12T01:59:51.930Z,82.31
2023-05-12T02:00:51.817Z,82.22
2023-05-12T02:01:51.932Z,82.20
2023-05-12T02:02:51.871Z,83.07
2023-05-12T02:03:51.945Z,83.35
2023-05-12T02:04:51.800Z,82.66
2023-05-12T02:05:52.802Z,82.84
2023-05-12T02:06:51.754Z,82.91
2023-05-12T02:07:51.783Z,83.03
2023-05-12T02:08:51.749Z,83.43
2023-05-12T02:09:51.792Z,83.57
2023-05-12T02:10:51.808Z,84.00
2023-05-12T02:11:51.749Z,84.11
2023-05-12T02:12:51.671Z,83.71
2023-05-12T02:13:51.718Z,83.58
2023-05-12T02:14:51.781Z,83.79
2023-05-12T02:15:51.765Z,84.34
2023-05-12T02:16:51.739Z,84.12
2023-05-12T02:17:51.754Z,84.64
2023-05-12T02:18:51.614Z,84.43
2023-05-12T02:19:51.661Z,84.42
2023-05-12T02:20:51.573Z,83.90
2023-05-12T02:21:51.674Z,83.96
2023-05-12T02:22:51.543Z,84.12
2023-05-12T02:23:51.600Z,84.07
2023-05-12T02:24:51.512Z,84.27
2023-05-12T02:25:51.624Z,83.99
2023-05-12T02:26:51.500Z,84.17
2023-05-12T02:27:51.515Z,84.45
2023-05-12T02:28:51.457Z,84.19
2023-05-12T02:29:51.533Z,84.34
2023-05-12T02:30:51.455Z,84.24
2023-05-12T02:31:51.553Z,84.31
2023-05-12T02:32:51.480Z,84.25
2023-05-12T02:33:51.454Z,84.30
2023-05-12T02:34:51.360Z,84.47
2023-05-12T02:35:51.474Z,84.32
2023-05-12T02:36:51.357Z,84.87
2023-05-12T02:37:51.382Z,84.65
2023-05-12T02:38:51.344Z,84.67
2023-05-12T02:39:51.503Z,84.56
2023-05-12T02:40:51.317Z,85.05
2023-05-12T02:41:51.322Z,84.96
2023-05-12T02:42:51.263Z,83.96
2023-05-12T02:43:51.341Z,83.65
2023-05-12T02:44:51.275Z,84.25
2023-05-12T02:45:51.271Z,84.36
2023-05-12T02:46:51.274Z,84.62
2023-05-12T02:47:51.273Z,84.46
2023-05-12T02:48:51.201Z,83.93
2023-05-12T02:49:51.265Z,83.93
2023-05-12T02:50:51.212Z,84.10
2023-05-12T02:51:51.179Z,83.83
2023-05-12T02:52:51.123Z,84.33
2023-05-12T02:53:51.218Z,84.46
2023-05-12T02:54:51.141Z,84.07
2023-05-12T02:55:51.231Z,84.22
2023-05-12T02:56:51.101Z,83.58
2023-05-12T02:57:51.124Z,83.47
2023-05-12T02:58:51.206Z,83.99
2023-05-12T02:59:51.141Z,84.25
2023-05-12T03:00:59.803Z,84.34
2023-05-12T03:01:52.084Z,84.62
2023-05-12T03:02:52.151Z,85.09
2023-05-12T03:03:51.108Z,84.49
2023-05-12T03:04:51.072Z,84.79
2023-05-12T03:05:50.969Z,84.79
2023-05-12T03:06:50.985Z,84.69
2023-05-12T03:07:50.972Z,84.54
2023-05-12T03:08:51.010Z,84.94
2023-05-12T03:09:50.902Z,85.25
2023-05-12T03:10:50.913Z,84.68
2023-05-12T03:11:50.889Z,84.30
2023-05-12T03:12:50.930Z,84.22
2023-05-12T03:13:50.872Z,84.16
2023-05-12T03:14:50.991Z,83.69
2023-05-12T03:15:50.826Z,84.27
2023-05-12T03:16:50.921Z,84.52
2023-05-12T03:17:50.944Z,83.95
2023-05-12T03:18:51.101Z,84.14
2023-05-12T03:19:50.952Z,84.27
2023-05-12T03:20:50.784Z,84.54
2023-05-12T03:21:50.902Z,83.96
2023-05-12T03:22:50.998Z,83.67
2023-05-12T03:23:50.718Z,84.29
2023-05-12T03:24:50.825Z,84.53
2023-05-12T03:25:50.704Z,84.42
2023-05-12T03:26:50.988Z,84.89
2023-05-12T03:27:50.658Z,85.19
2023-05-12T03:28:50.736Z,85.64
2023-05-12T03:29:50.648Z,85.29
2023-05-12T03:30:50.660Z,85.06
2023-05-12T03:31:50.696Z,85.41
2023-05-12T03:32:52.814Z,85.51
2023-05-12T03:33:50.580Z,85.66
2023-05-12T03:34:50.788Z,85.24
2023-05-12T03:35:50.551Z,85.26
2023-05-12T03:36:50.730Z,85.13
2023-05-12T03:37:50.589Z,85.23
2023-05-12T03:38:50.595Z,85.20
2023-05-12T03:39:50.501Z,84.67
2023-05-12T03:40:50.520Z,85.02
2023-05-12T03:41:50.494Z,84.79
2023-05-12T03:42:50.654Z,84.90
2023-05-12T03:43:50.570Z,84.73
2023-05-12T03:44:50.541Z,84.84
2023-05-12T03:45:50.416Z,84.63
2023-05-12T03:46:50.565Z,84.83
2023-05-12T03:47:50.481Z,84.67
2023-05-12T03:48:50.502Z,84.34
2023-05-12T03:49:50.496Z,84.73
2023-05-12T03:50:50.387Z,84.50
2023-05-12T03:51:50.325Z,84.46
2023-05-12T03:52:50.399Z,84.93
2023-05-12T03:53:53.853Z,85.11
2023-05-12T03:54:50.323Z,84.51
2023-05-12T03:55:50.440Z,84.67
2023-05-12T03:56:50.330Z,84.89
2023-05-12T03:57:50.468Z,84.72
2023-05-12T03:58:50.346Z,84.23
2023-05-12T03:59:50.238Z,83.89
2023-05-12T04:00:50.397Z,84.16
2023-05-12T04:01:50.351Z,83.97
2023-05-12T04:02:50.427Z,83.66
2023-05-12T04:03:50.403Z,83.83
2023-05-12T04:04:50.300Z,84.32
2023-05-12T04:05:50.151Z,84.23
2023-05-12T04:06:50.338Z,84.51
2023-05-12T04:07:50.146Z,85.03
2023-05-12T04:08:50.209Z,85.03
2023-05-12T04:09:50.115Z,84.41
2023-05-12T04:10:51.150Z,84.07
2023-05-12T04:11:50.071Z,84.54
2023-05-12T04:12:50.133Z,84.33
2023-05-12T04:13:50.194Z,84.93
2023-05-12T04:14:50.063Z,85.32
2023-05-12T04:15:50.039Z,85.11
2023-05-12T04:16:51.281Z,84.92
2023-05-12T04:17:50.068Z,85.10
2023-05-12T04:18:50.203Z,85.19
2023-05-12T04:19:49.991Z,84.74
2023-05-12T04:20:50.017Z,84.70
2023-05-12T04:21:50.017Z,85.24
2023-05-12T04:22:49.998Z,85.33
2023-05-12T04:23:49.900Z,85.44
2023-05-12T04:24:50.140Z,85.75
2023-05-12T04:25:49.933Z,85.71
2023-05-12T04:26:49.939Z,85.12
2023-05-12T04:27:50.014Z,85.36
2023-05-12T04:28:49.946Z,85.45
2023-05-12T04:29:49.831Z,85.28
2023-05-12T04:30:49.858Z,84.86
2023-05-12T04:31:49.914Z,84.62
2023-05-12T04:32:49.902Z,84.93
2023-05-12T04:33:49.767Z,85.06
2023-05-12T04:34:49.895Z,85.14
2023-05-12T04:35:49.752Z,85.10
2023-05-12T04:36:49.809Z,85.08
2023-05-12T04:37:49.769Z,84.79
2023-05-12T04:38:49.823Z,84.78
2023-05-12T04:39:49.735Z,84.89
2023-05-12T04:40:49.732Z,85.13
2023-05-12T04:41:49.688Z,84.92
2023-05-12T04:42:49.883Z,85.03
2023-05-12T04:44:50.681Z,85.30
2023-05-12T04:45:49.638Z,85.10
2023-05-12T04:46:49.672Z,84.72
2023-05-12T04:47:49.680Z,84.91
2023-05-12T04:48:49.729Z,85.10
2023-05-12T04:49:49.668Z,85.13
2023-05-12T04:50:49.591Z,85.50
2023-05-12T04:51:49.531Z,85.46
2023-05-12T04:52:49.626Z,85.25
2023-05-12T04:53:49.507Z,85.47
2023-05-12T04:54:49.576Z,85.24
2023-05-12T04:55:49.614Z,85.25
2023-05-12T04:56:49.531Z,85.31
2023-05-12T04:57:49.447Z,85.23
2023-05-12T04:58:49.460Z,84.88
2023-05-12T04:59:49.536Z,85.18
2023-05-12T05:00:49.556Z,85.35
2023-05-12T05:01:49.498Z,85.74
2023-05-12T05:02:49.653Z,84.84
2023-05-12T05:03:49.468Z,84.93
2023-05-12T05:04:49.418Z,85.33
2023-05-12T05:05:49.367Z,85.17
2023-05-12T05:06:49.404Z,84.55
2023-05-12T05:07:49.352Z,84.67
2023-05-12T05:08:49.314Z,84.56
2023-05-12T05:09:49.285Z,85.06
2023-05-12T05:10:49.332Z,85.03
2023-05-12T05:11:49.257Z,85.04
2023-05-12T05:12:49.406Z,85.03
2023-05-12T05:13:49.282Z,85.07
2023-05-12T05:14:49.353Z,85.21
2023-05-12T05:15:49.418Z,85.06
2023-05-12T05:16:49.301Z,85.06
2023-05-12T05:17:49.240Z,85.08
2023-05-12T05:18:49.264Z,84.42
2023-05-12T05:19:57.518Z,84.38
2023-05-12T05:20:57.213Z,84.80
2023-05-12T05:21:50.123Z,84.95
2023-05-12T05:22:51.338Z,84.85
2023-05-12T05:23:49.110Z,85.31
2023-05-12T05:24:49.396Z,84.93
2023-05-12T05:25:49.087Z,85.01
2023-05-12T05:26:49.147Z,85.29
2023-05-12T05:27:49.060Z,84.50
2023-05-12T05:28:49.082Z,84.27
2023-05-12T05:29:49.143Z,84.41
2023-05-12T05:30:50.126Z,84.80
2023-05-12T05:31:49.107Z,84.89
2023-05-12T05:32:49.238Z,85.31
2023-05-12T05:33:49.296Z,85.03
2023-05-12T05:34:49.008Z,85.15
2023-05-12T05:35:49.069Z,85.11
2023-05-12T05:36:49.034Z,85.24
2023-05-12T05:37:48.936Z,85.31
2023-05-12T05:38:48.922Z,84.76
2023-05-12T05:39:48.890Z,84.71
2023-05-12T05:40:53.720Z,85.28
2023-05-12T05:41:49.858Z,85.24
2023-05-12T05:42:48.949Z,84.98
2023-05-12T05:43:48.891Z,84.46
2023-05-12T05:44:48.861Z,84.76
2023-05-12T05:45:48.804Z,84.77
2023-05-12T05:46:48.919Z,85.08
2023-05-12T05:47:48.843Z,84.99
2023-05-12T05:48:48.799Z,85.25
2023-05-12T05:49:48.782Z,84.61
2023-05-12T05:50:48.935Z,84.82
2023-05-12T05:51:48.822Z,84.82
2023-05-12T05:52:49.382Z,85.23
2023-05-12T05:53:48.698Z,84.76
2023-05-12T05:54:48.733Z,85.00
2023-05-12T05:55:48.704Z,84.75
2023-05-12T05:56:48.750Z,84.66
2023-05-12T05:57:48.855Z,84.94
2023-05-12T05:58:48.659Z,85.39
2023-05-12T05:59:48.611Z,84.94
2023-05-12T06:00:48.676Z,85.14
2023-05-12T06:01:48.675Z,84.63
2023-05-12T06:02:48.982Z,84.49
2023-05-12T06:03:48.618Z,84.84
2023-05-12T06:04:48.589Z,84.82
2023-05-12T06:05:48.536Z,85.26
2023-05-12T06:06:48.614Z,85.01
2023-05-12T06:07:48.518Z,85.04
2023-05-12T06:08:48.552Z,84.90
2023-05-12T06:09:48.531Z,84.89
2023-05-12T06:10:48.665Z,84.50
2023-05-12T06:11:48.452Z,84.50
2023-05-12T06:12:48.465Z,84.36
2023-05-12T06:13:48.455Z,84.24
2023-05-12T06:14:48.470Z,84.39
2023-05-12T06:15:48.450Z,84.08
2023-05-12T06:16:48.531Z,83.87
2023-05-12T06:17:48.526Z,84.17
2023-05-12T06:18:48.465Z,84.09
2023-05-12T06:19:48.367Z,84.58
2023-05-12T06:20:48.511Z,85.18
2023-05-12T06:21:48.312Z,85.05
2023-05-12T06:22:48.468Z,84.70
2023-05-12T06:23:48.298Z,85.12
2023-05-12T06:24:48.341Z,85.03
2023-05-12T06:25:48.287Z,84.99
2023-05-12T06:26:50.445Z,85.04
2023-05-12T06:27:48.358Z,84.51
2023-05-12T06:28:48.272Z,85.17
2023-05-12T06:29:48.232Z,85.19
2023-05-12T06:30:48.306Z,84.92
2023-05-12T06:31:48.229Z,84.94
2023-05-12T06:32:48.229Z,84.71
2023-05-12T06:33:48.231Z,84.69
2023-05-12T06:34:48.206Z,84.83
2023-05-12T06:35:48.140Z,85.08
2023-05-12T06:36:48.233Z,85.39
2023-05-12T06:37:48.143Z,85.39
2023-05-12T06:38:48.137Z,85.64
2023-05-12T06:39:48.095Z,85.59
2023-05-12T06:40:48.251Z,85.86
2023-05-12T06:41:48.057Z,85.64
2023-05-12T06:42:48.058Z,85.43
2023-05-12T06:43:48.053Z,85.61
2023-05-12T06:45:57.469Z,84.34
2023-05-12T06:46:57.307Z,84.34
2023-05-12T06:47:57.332Z,84.58
2023-05-12T06:48:57.404Z,84.45
2023-05-12T06:49:57.354Z,84.11
2023-05-12T06:50:57.236Z,84.05
2023-05-12T06:51:57.242Z,83.73
2023-05-12T06:52:57.315Z,83.45
2023-05-12T06:53:57.289Z,83.30
2023-05-12T06:54:57.220Z,83.79
2023-05-12T06:55:57.280Z,83.35
2023-05-12T06:56:57.154Z,83.49
2023-05-12T06:57:57.267Z,84.31
2023-05-12T06:58:57.162Z,84.10
2023-05-12T06:59:57.355Z,83.91
2023-05-12T07:00:57.258Z,83.74
2023-05-12T07:01:57.177Z,83.89
2023-05-12T07:02:57.106Z,84.39
2023-05-12T07:03:57.184Z,84.68
2023-05-12T07:04:57.190Z,84.46
2023-05-12T07:05:57.172Z,83.81
2023-05-12T07:06:57.202Z,84.29
2023-05-12T07:07:57.043Z,83.86
2023-05-12T07:08:56.989Z,83.76
2023-05-12T07:09:57.059Z,83.78
2023-05-12T07:10:57.004Z,83.37
2023-05-12T07:11:57.065Z,83.34
2023-05-12T07:12:57.006Z,83.48
2023-05-12T07:13:57.342Z,83.69
2023-05-12T07:14:57.124Z,83.58
2023-05-12T07:15:57.030Z,84.07
2023-05-12T07:16:56.887Z,83.70
2023-05-12T07:17:58.009Z,83.05
2023-05-12T07:18:57.024Z,83.47
2023-05-12T07:20:03.528Z,84.27
2023-05-12T07:21:06.345Z,84.03
2023-05-12T07:21:59.004Z,84.05
2023-05-12T07:22:57.576Z,83.72
2023-05-12T07:23:56.787Z,84.35
2023-05-12T07:24:58.945Z,83.93
2023-05-12T07:25:56.855Z,84.43
2023-05-12T07:26:56.825Z,83.92
2023-05-12T07:27:56.819Z,83.56
2023-05-12T07:28:56.797Z,83.50
2023-05-12T07:29:56.869Z,84.13
2023-05-12T07:30:56.810Z,84.48
2023-05-12T07:31:56.686Z,83.97
2023-05-12T07:32:56.800Z,83.18
2023-05-12T07:33:56.707Z,83.74
2023-05-12T07:34:56.768Z,83.92
2023-05-12T07:35:56.622Z,84.06
2023-05-12T07:36:58.282Z,83.79
2023-05-12T07:37:56.608Z,83.56
2023-05-12T07:39:00.631Z,83.35
2023-05-12T07:39:56.590Z,83.03
2023-05-12T07:40:56.643Z,83.34
2023-05-12T07:41:56.566Z,83.16
2023-05-12T07:42:56.637Z,82.87
2023-05-12T07:43:56.573Z,82.71
2023-05-12T07:44:56.594Z,82.43
2023-05-12T07:45:56.525Z,82.14
2023-05-12T07:46:57.654Z,82.53
2023-05-12T07:47:56.550Z,82.31
2023-05-12T07:48:56.594Z,82.28
2023-05-12T07:49:56.447Z,81.87
2023-05-12T07:50:56.562Z,81.39
2023-05-12T07:51:56.435Z,81.51
2023-05-12T07:52:56.585Z,82.71
2023-05-12T07:53:56.448Z,82.74
2023-05-12T07:54:56.561Z,83.07
2023-05-12T07:55:56.368Z,83.34
2023-05-12T07:56:56.496Z,83.79
2023-05-12T07:57:56.322Z,83.45
2023-05-12T07:59:19.435Z,83.81
2023-05-12T07:59:56.315Z,82.75
2023-05-12T08:00:56.387Z,83.56
2023-05-12T08:01:56.349Z,84.04
2023-05-12T08:02:56.620Z,83.59
2023-05-12T08:03:56.363Z,84.48
2023-05-12T08:04:56.461Z,83.61
2023-05-12T08:05:56.316Z,84.37
2023-05-12T08:06:56.441Z,84.27
2023-05-12T08:07:56.465Z,84.44
2023-05-12T08:08:56.385Z,83.65
2023-05-12T08:09:56.587Z,82.78
2023-05-12T08:10:56.368Z,82.61
2023-05-12T08:11:57.532Z,82.33
2023-05-12T08:12:56.374Z,82.59
2023-05-12T08:13:56.158Z,83.06
2023-05-12T08:14:56.217Z,83.72
2023-05-12T08:15:56.113Z,82.92
2023-05-12T08:16:56.138Z,83.49
2023-05-12T08:17:56.165Z,84.22
2023-05-12T08:18:56.286Z,84.68
2023-05-12T08:19:56.359Z,84.70
2023-05-12T08:20:56.327Z,84.80
2023-05-12T08:21:56.076Z,85.00
2023-05-12T08:22:56.130Z,84.31
2023-05-12T08:23:56.064Z,83.96
2023-05-12T08:24:56.434Z,83.88
2023-05-12T08:25:56.121Z,83.89
2023-05-12T08:26:55.987Z,84.24
2023-05-12T08:27:57.386Z,83.64
2023-05-12T08:28:57.519Z,83.17
2023-05-12T08:29:56.052Z,82.55
2023-05-12T08:30:56.061Z,82.40
2023-05-12T08:31:55.897Z,82.74
2023-05-12T08:32:56.007Z,82.75
2023-05-12T08:34:09.154Z,82.38
2023-05-12T08:34:56.860Z,82.51
2023-05-12T08:35:55.940Z,82.87
2023-05-12T08:36:55.961Z,82.31
2023-05-12T08:37:55.894Z,82.18
2023-05-12T08:38:55.779Z,81.88
2023-05-12T08:39:55.908Z,81.63
2023-05-12T08:40:55.756Z,81.50
2023-05-12T08:41:55.811Z,82.20
2023-05-12T08:42:55.827Z,81.84
2023-05-12T08:43:56.023Z,82.18
2023-05-12T08:44:55.762Z,82.03
2023-05-12T08:45:55.846Z,82.10
2023-05-12T08:46:55.767Z,81.74
2023-05-12T08:47:55.800Z,81.64
2023-05-12T08:48:55.672Z,82.28
2023-05-12T08:49:55.668Z,82.71
2023-05-12T08:50:55.638Z,82.19
2023-05-12T08:51:58.228Z,82.36
2023-05-12T08:52:55.613Z,82.29
2023-05-12T08:53:57.674Z,81.86
2023-05-12T08:54:56.645Z,81.52
2023-05-12T08:57:09.280Z,81.65
2023-05-12T08:57:55.519Z,81.17
2023-05-12T08:58:55.613Z,80.65
2023-05-12T08:59:55.527Z,81.03
2023-05-12T09:00:55.622Z,81.42
2023-05-12T09:01:55.545Z,82.03
2023-05-12T09:02:55.774Z,81.55
2023-05-12T09:03:55.523Z,80.85
2023-05-12T09:04:55.628Z,80.30
2023-05-12T09:05:55.407Z,80.08
2023-05-12T09:06:56.098Z,80.58
2023-05-12T09:07:55.374Z,80.27
2023-05-12T09:08:55.516Z,79.70
2023-05-12T09:09:55.389Z,79.90
2023-05-12T09:10:55.486Z,79.55
2023-05-12T09:11:55.337Z,80.51
2023-05-12T09:12:56.788Z,81.34
2023-05-12T09:13:55.368Z,81.59
2023-05-12T09:14:55.320Z,81.93
2023-05-12T09:15:55.323Z,81.18
2023-05-12T09:16:55.333Z,81.27
2023-05-12T09:17:55.277Z,80.85
2023-05-12T09:18:55.347Z,80.89
2023-05-12T09:19:55.273Z,80.96
2023-05-12T09:20:55.309Z,81.67
2023-05-12T09:21:55.241Z,81.82
2023-05-12T09:22:55.639Z,81.36
2023-05-12T09:23:55.402Z,81.95
2023-05-12T09:24:55.637Z,81.79
2023-05-12T09:25:55.169Z,82.15
2023-05-12T09:26:55.247Z,82.36
2023-05-12T09:27:55.412Z,82.66
2023-05-12T09:28:55.216Z,82.91
2023-05-12T09:29:59.768Z,82.59
2023-05-12T09:30:55.095Z,83.03
2023-05-12T09:31:55.172Z,82.40
2023-05-12T09:32:55.162Z,82.09
2023-05-12T09:33:55.152Z,81.30
2023-05-12T09:34:55.036Z,80.92
2023-05-12T09:35:55.066Z,81.24
2023-05-12T09:36:55.109Z,80.96
2023-05-12T09:37:55.073Z,80.39
2023-05-12T09:38:54.985Z,80.73
2023-05-12T09:39:54.984Z,81.77
2023-05-12T09:40:54.961Z,81.94
2023-05-12T09:41:55.018Z,81.65
2023-05-12T09:42:54.957Z,80.92
2023-05-12T09:43:55.017Z,80.85
2023-05-12T09:44:54.894Z,79.94
2023-05-12T09:45:54.979Z,81.49
2023-05-12T09:46:54.890Z,82.15
2023-05-12T09:47:55.045Z,82.15
2023-05-12T09:48:54.956Z,80.58
2023-05-12T09:49:54.852Z,79.47
2023-05-12T09:50:54.915Z,79.73
2023-05-12T09:51:54.880Z,78.81
2023-05-12T09:52:54.904Z,77.73
2023-05-12T09:53:54.786Z,79.69
2023-05-12T09:54:54.809Z,79.41
2023-05-12T09:55:54.791Z,79.32
2023-05-12T09:56:54.736Z,79.64
2023-05-12T09:57:54.810Z,79.40
2023-05-12T09:58:54.760Z,79.79
2023-05-12T09:59:54.739Z,80.21
2023-05-12T10:01:54.822Z,78.88
2023-05-12T10:02:54.699Z,78.45
2023-05-12T10:03:54.944Z,78.56
2023-05-12T10:04:54.679Z,78.67
2023-05-12T10:05:54.655Z,78.57
2023-05-12T10:06:54.622Z,78.00
2023-05-12T10:07:54.673Z,78.78
2023-05-12T10:08:54.559Z,79.41
2023-05-12T10:09:55.611Z,78.77
2023-05-12T10:10:54.546Z,79.20
2023-05-12T10:11:54.628Z,79.61
2023-05-12T10:12:54.522Z,78.41
2023-05-12T10:13:54.513Z,78.72
2023-05-12T10:14:54.482Z,79.00
2023-05-12T10:15:54.534Z,79.03
2023-05-12T10:16:54.489Z,77.60
2023-05-12T10:17:54.556Z,77.22
2023-05-12T10:18:54.498Z,78.21
2023-05-12T10:19:54.482Z,77.28
2023-05-12T10:20:54.510Z,78.25
2023-05-12T10:21:54.516Z,78.07
2023-05-12T10:22:54.375Z,79.41
2023-05-12T10:23:54.416Z,79.29
2023-05-12T10:24:54.373Z,77.88
2023-05-12T10:25:54.443Z,78.96
2023-05-12T10:26:54.340Z,79.39
2023-05-12T10:27:54.406Z,78.94
2023-05-12T10:28:54.297Z,78.59
2023-05-12T10:29:54.388Z,79.32
2023-05-12T10:30:54.321Z,78.93
2023-05-12T10:31:54.430Z,79.43
2023-05-12T10:32:54.310Z,78.25
2023-05-12T10:33:54.249Z,77.93
2023-05-12T10:34:54.790Z,77.45
2023-05-12T10:35:54.271Z,77.44
2023-05-12T10:36:54.268Z,78.87
2023-05-12T10:37:54.182Z,79.31
2023-05-12T10:38:54.153Z,79.09
2023-05-12T10:39:54.194Z,78.41
2023-05-12T10:40:54.156Z,78.94
2023-05-12T10:41:54.212Z,78.86
2023-05-12T10:42:54.134Z,78.95
2023-05-12T10:43:54.111Z,78.34
2023-05-12T10:44:54.339Z,77.38
2023-05-12T10:45:54.152Z,77.56
2023-05-12T10:46:54.150Z,77.05
2023-05-12T10:47:54.109Z,77.07
2023-05-12T10:48:54.127Z,78.53
2023-05-12T10:49:54.890Z,77.66
2023-05-12T10:50:54.009Z,78.21
2023-05-12T10:51:54.097Z,79.20
2023-05-12T10:52:53.973Z,78.61
2023-05-12T10:53:54.771Z,77.63
2023-05-12T10:54:53.946Z,78.93
2023-05-12T10:55:54.230Z,79.75
2023-05-12T10:56:54.177Z,80.43
2023-05-12T10:57:54.173Z,78.48
2023-05-12T10:58:54.163Z,79.88
2023-05-12T10:59:54.405Z,80.50
2023-05-12T11:00:54.617Z,79.14
2023-05-12T11:01:54.255Z,79.90
2023-05-12T11:02:54.788Z,80.09
2023-05-12T11:03:54.142Z,79.85
2023-05-12T11:04:53.975Z,80.40
2023-05-12T11:05:54.006Z,79.54
2023-05-12T11:06:54.444Z,80.53
2023-05-12T11:07:54.583Z,79.46
2023-05-12T11:08:55.120Z,79.94
2023-05-12T11:09:58.437Z,79.52
2023-05-12T11:10:54.746Z,78.01
2023-05-12T11:11:54.438Z,76.28
2023-05-12T11:12:53.717Z,76.63
2023-05-12T11:13:53.745Z,76.67
2023-05-12T11:14:53.654Z,77.78
2023-05-12T11:16:14.840Z,78.01
2023-05-12T11:16:53.653Z,78.29
2023-05-12T11:17:54.717Z,77.30
2023-05-12T11:18:53.723Z,78.92
2023-05-12T11:19:53.665Z,79.86
2023-05-12T11:20:53.577Z,78.36
2023-05-12T11:21:53.675Z,77.19
2023-05-12T11:22:53.556Z,76.82
2023-05-12T11:23:53.616Z,78.92
2023-05-12T11:24:53.577Z,78.78
2023-05-12T11:25:53.683Z,78.56
2023-05-12T11:26:53.498Z,79.51
2023-05-12T11:27:54.248Z,79.57
2023-05-12T11:28:53.476Z,79.62
2023-05-12T11:29:53.556Z,79.61
2023-05-12T11:30:55.232Z,79.05
2023-05-12T11:31:53.496Z,79.07
2023-05-12T11:32:53.481Z,79.42
2023-05-12T11:34:04.567Z,79.28
2023-05-12T11:34:54.404Z,76.86
2023-05-12T11:35:53.479Z,77.85
2023-05-12T11:37:14.496Z,76.42
2023-05-12T11:37:53.348Z,75.89
2023-05-12T11:38:53.395Z,76.26
2023-05-12T11:39:53.318Z,78.34
2023-05-12T11:40:53.416Z,77.97
2023-05-12T11:42:02.067Z,79.05
2023-05-12T11:42:54.306Z,79.51
2023-05-12T11:43:53.326Z,79.34
2023-05-12T11:44:53.281Z,78.38
2023-05-12T11:45:53.348Z,78.76
2023-05-12T11:46:53.224Z,78.53
2023-05-12T11:47:53.303Z,79.23
2023-05-12T11:48:53.235Z,79.59
2023-05-12T11:49:53.281Z,79.97
2023-05-12T11:50:53.211Z,78.77
2023-05-12T11:51:53.188Z,78.38
2023-05-12T11:52:53.159Z,79.51
2023-05-12T11:53:53.250Z,78.81
2023-05-12T11:54:53.142Z,78.59
2023-05-12T11:55:53.216Z,77.18
2023-05-12T11:56:53.096Z,78.44
2023-05-12T11:57:53.141Z,78.16
2023-05-12T11:58:53.061Z,78.59
2023-05-12T11:59:53.096Z,77.42
2023-05-12T12:00:53.074Z,77.03
2023-05-12T12:01:53.075Z,77.19
2023-05-12T12:02:53.074Z,77.79
2023-05-12T12:03:53.228Z,78.20
2023-05-12T12:04:53.001Z,77.76
2023-05-12T12:05:54.021Z,77.38
2023-05-12T12:06:52.997Z,76.59
2023-05-12T12:07:53.023Z,75.27
2023-05-12T12:08:52.969Z,75.94
2023-05-12T12:09:52.925Z,75.22
2023-05-12T12:10:52.925Z,72.53
2023-05-12T12:11:53.976Z,72.28
2023-05-12T12:12:52.924Z,72.73
2023-05-12T12:13:52.929Z,70.92
2023-05-12T12:14:53.348Z,70.84
2023-05-12T12:15:53.084Z,71.83
2023-05-12T12:16:52.835Z,71.91
2023-05-12T12:17:52.908Z,73.40
2023-05-12T12:18:53.121Z,73.71
2023-05-12T12:20:13.876Z,73.94
2023-05-12T12:20:52.768Z,74.18
2023-05-12T12:21:52.794Z,74.95
2023-05-12T12:22:52.758Z,74.98
2023-05-12T12:23:52.818Z,75.35
2023-05-12T12:24:52.776Z,74.80
2023-05-12T12:25:52.736Z,75.27
2023-05-12T12:26:52.686Z,75.49
2023-05-12T12:27:52.747Z,76.49
2023-05-12T12:28:52.677Z,77.91
2023-05-12T12:29:52.679Z,77.87
2023-05-12T12:30:52.661Z,78.07
2023-05-12T12:31:52.692Z,78.76
2023-05-12T12:32:52.823Z,79.10
2023-05-12T12:33:52.681Z,79.82
2023-05-12T12:34:52.578Z,79.21
2023-05-12T12:35:52.590Z,79.78
2023-05-12T12:36:52.574Z,80.13
2023-05-12T12:37:52.607Z,80.33
2023-05-12T12:38:52.518Z,78.58
2023-05-12T12:39:52.513Z,77.87
2023-05-12T12:40:52.491Z,77.87
2023-05-12T12:41:52.535Z,78.23
2023-05-12T12:42:52.493Z,79.11
2023-05-12T12:43:54.583Z,78.15
2023-05-12T12:44:52.440Z,78.84
2023-05-12T12:45:52.452Z,78.91
2023-05-12T12:46:52.448Z,77.61
2023-05-12T12:47:52.559Z,77.12
2023-05-12T12:48:52.422Z,75.82
2023-05-12T12:49:52.394Z,76.77
2023-05-12T12:50:52.355Z,76.16
2023-05-12T12:51:52.428Z,76.61
2023-05-12T12:52:52.348Z,76.54
2023-05-12T12:53:52.415Z,75.90
2023-05-12T12:54:52.345Z,75.83
2023-05-12T12:55:52.333Z,75.47
2023-05-12T12:56:52.267Z,76.11